sensor_id;sensor_type;location;lat;lon;timestamp;P1;durP1;ratioP1;P2;durP2;ratioP2
82646;SDS011;72325;41.910;22.404;2024-02-28T00:01:19;15.00;;;11.10;;
82646;SDS011;72325;41.910;22.404;2024-02-28T00:03:45;13.60;;;9.95;;
82646;SDS011;72325;41.910;22.404;2024-02-28T00:06:12;19.65;;;12.35;;
82646;SDS011;72325;41.910;22.404;2024-02-28T00:08:38;20.95;;;12.23;;
82646;SDS011;72325;41.910;22.404;2024-02-28T00:11:04;15.32;;;10.20;;
82646;SDS011;72325;41.910;22.404;2024-02-28T00:13:30;17.08;;;11.90;;
82646;SDS011;72325;41.910;22.404;2024-02-28T00:15:56;15.27;;;9.80;;
82646;SDS011;72325;41.910;22.404;2024-02-28T00:18:22;12.05;;;9.63;;
82646;SDS011;72325;41.910;22.404;2024-02-28T00:20:48;28.55;;;15.82;;
82646;SDS011;72325;41.910;22.404;2024-02-28T00:26:18;15.40;;;11.15;;
82646;SDS011;72325;41.910;22.404;2024-02-28T00:28:44;15.63;;;10.43;;
82646;SDS011;72325;41.910;22.404;2024-02-28T00:31:10;14.40;;;9.45;;
82646;SDS011;72325;41.910;22.404;2024-02-28T00:33:36;18.13;;;9.60;;
82646;SDS011;72325;41.910;22.404;2024-02-28T00:36:03;23.95;;;16.02;;
82646;SDS011;72325;41.910;22.404;2024-02-28T00:41:32;14.10;;;11.02;;
82646;SDS011;72325;41.910;22.404;2024-02-28T00:43:58;16.30;;;9.57;;
82646;SDS011;72325;41.910;22.404;2024-02-28T00:46:24;12.75;;;8.20;;
82646;SDS011;72325;41.910;22.404;2024-02-28T00:48:50;9.98;;;7.57;;
82646;SDS011;72325;41.910;22.404;2024-02-28T00:51:16;10.65;;;7.68;;
82646;SDS011;72325;41.910;22.404;2024-02-28T00:53:42;10.13;;;7.22;;
82646;SDS011;72325;41.910;22.404;2024-02-28T00:56:08;11.00;;;7.97;;
82646;SDS011;72325;41.910;22.404;2024-02-28T00:58:35;12.40;;;7.43;;
82646;SDS011;72325;41.910;22.404;2024-02-28T01:01:01;12.10;;;6.90;;
82646;SDS011;72325;41.910;22.404;2024-02-28T01:03:28;10.60;;;7.45;;
82646;SDS011;72325;41.910;22.404;2024-02-28T01:05:54;9.13;;;6.30;;
82646;SDS011;72325;41.910;22.404;2024-02-28T01:11:24;9.10;;;6.60;;
82646;SDS011;72325;41.910;22.404;2024-02-28T01:13:50;15.52;;;8.10;;
82646;SDS011;72325;41.910;22.404;2024-02-28T01:16:16;14.25;;;7.20;;
82646;SDS011;72325;41.910;22.404;2024-02-28T01:18:43;10.93;;;7.88;;
82646;SDS011;72325;41.910;22.404;2024-02-28T01:21:09;11.95;;;7.43;;
82646;SDS011;72325;41.910;22.404;2024-02-28T01:26:38;12.98;;;8.50;;
82646;SDS011;72325;41.910;22.404;2024-02-28T01:29:07;11.25;;;8.25;;
82646;SDS011;72325;41.910;22.404;2024-02-28T01:31:33;13.18;;;8.57;;
82646;SDS011;72325;41.910;22.404;2024-02-28T01:34:00;11.98;;;8.40;;
82646;SDS011;72325;41.910;22.404;2024-02-28T01:36:26;12.57;;;8.43;;
82646;SDS011;72325;41.910;22.404;2024-02-28T01:38:52;12.82;;;8.82;;
82646;SDS011;72325;41.910;22.404;2024-02-28T01:41:19;10.52;;;7.95;;
82646;SDS011;72325;41.910;22.404;2024-02-28T01:43:45;11.77;;;8.25;;
82646;SDS011;72325;41.910;22.404;2024-02-28T01:46:29;14.05;;;8.30;;
82646;SDS011;72325;41.910;22.404;2024-02-28T01:48:56;11.93;;;8.40;;
82646;SDS011;72325;41.910;22.404;2024-02-28T01:51:25;12.85;;;9.27;;
82646;SDS011;72325;41.910;22.404;2024-02-28T01:53:52;9.57;;;7.22;;
82646;SDS011;72325;41.910;22.404;2024-02-28T01:56:20;14.00;;;7.60;;
82646;SDS011;72325;41.910;22.404;2024-02-28T01:58:46;12.85;;;8.40;;
82646;SDS011;72325;41.910;22.404;2024-02-28T02:01:13;16.00;;;8.95;;
82646;SDS011;72325;41.910;22.404;2024-02-28T02:03:40;9.45;;;7.35;;
82646;SDS011;72325;41.910;22.404;2024-02-28T02:06:06;16.50;;;8.43;;
82646;SDS011;72325;41.910;22.404;2024-02-28T02:11:35;11.95;;;7.70;;
82646;SDS011;72325;41.910;22.404;2024-02-28T02:14:01;12.38;;;8.20;;
82646;SDS011;72325;41.910;22.404;2024-02-28T02:16:27;12.93;;;8.25;;
82646;SDS011;72325;41.910;22.404;2024-02-28T02:18:55;10.60;;;7.30;;
82646;SDS011;72325;41.910;22.404;2024-02-28T02:21:24;11.68;;;7.28;;
82646;SDS011;72325;41.910;22.404;2024-02-28T02:27:31;12.85;;;7.88;;
82646;SDS011;72325;41.910;22.404;2024-02-28T02:29:58;11.70;;;7.82;;
82646;SDS011;72325;41.910;22.404;2024-02-28T02:32:24;14.80;;;9.32;;
82646;SDS011;72325;41.910;22.404;2024-02-28T02:34:50;15.60;;;9.90;;
82646;SDS011;72325;41.910;22.404;2024-02-28T02:37:16;21.05;;;11.18;;
82646;SDS011;72325;41.910;22.404;2024-02-28T02:39:42;15.25;;;10.07;;
82646;SDS011;72325;41.910;22.404;2024-02-28T02:42:08;13.18;;;8.30;;
82646;SDS011;72325;41.910;22.404;2024-02-28T02:44:34;11.98;;;8.50;;
82646;SDS011;72325;41.910;22.404;2024-02-28T02:47:00;11.30;;;7.35;;
82646;SDS011;72325;41.910;22.404;2024-02-28T02:49:26;9.43;;;6.93;;
82646;SDS011;72325;41.910;22.404;2024-02-28T02:51:53;10.05;;;7.82;;
82646;SDS011;72325;41.910;22.404;2024-02-28T02:54:19;11.88;;;9.20;;
82646;SDS011;72325;41.910;22.404;2024-02-28T02:56:45;13.40;;;9.02;;
82646;SDS011;72325;41.910;22.404;2024-02-28T02:59:11;15.57;;;9.20;;
82646;SDS011;72325;41.910;22.404;2024-02-28T03:01:37;16.13;;;8.77;;
82646;SDS011;72325;41.910;22.404;2024-02-28T03:04:03;12.23;;;8.70;;
82646;SDS011;72325;41.910;22.404;2024-02-28T03:06:30;14.25;;;9.02;;
82646;SDS011;72325;41.910;22.404;2024-02-28T03:12:00;13.65;;;8.63;;
82646;SDS011;72325;41.910;22.404;2024-02-28T03:14:26;13.63;;;8.98;;
82646;SDS011;72325;41.910;22.404;2024-02-28T03:16:53;13.95;;;9.02;;
82646;SDS011;72325;41.910;22.404;2024-02-28T03:19:19;12.45;;;8.70;;
82646;SDS011;72325;41.910;22.404;2024-02-28T03:21:46;12.32;;;7.68;;
82646;SDS011;72325;41.910;22.404;2024-02-28T03:24:12;9.32;;;7.72;;
82646;SDS011;72325;41.910;22.404;2024-02-28T03:26:38;10.27;;;8.15;;
82646;SDS011;72325;41.910;22.404;2024-02-28T03:29:04;12.45;;;8.27;;
82646;SDS011;72325;41.910;22.404;2024-02-28T03:31:30;11.88;;;7.40;;
82646;SDS011;72325;41.910;22.404;2024-02-28T03:33:56;12.85;;;8.25;;
82646;SDS011;72325;41.910;22.404;2024-02-28T03:36:22;13.73;;;8.88;;
82646;SDS011;72325;41.910;22.404;2024-02-28T03:41:52;14.20;;;8.70;;
82646;SDS011;72325;41.910;22.404;2024-02-28T03:44:18;12.75;;;8.52;;
82646;SDS011;72325;41.910;22.404;2024-02-28T03:46:44;12.20;;;8.70;;
82646;SDS011;72325;41.910;22.404;2024-02-28T03:49:10;11.00;;;8.73;;
82646;SDS011;72325;41.910;22.404;2024-02-28T03:51:40;15.90;;;9.35;;
82646;SDS011;72325;41.910;22.404;2024-02-28T03:57:48;15.48;;;10.02;;
82646;SDS011;72325;41.910;22.404;2024-02-28T04:00:16;13.80;;;9.95;;
82646;SDS011;72325;41.910;22.404;2024-02-28T04:02:43;14.70;;;10.40;;
82646;SDS011;72325;41.910;22.404;2024-02-28T04:05:09;15.63;;;9.95;;
82646;SDS011;72325;41.910;22.404;2024-02-28T04:07:35;14.70;;;9.75;;
82646;SDS011;72325;41.910;22.404;2024-02-28T04:10:01;16.00;;;10.40;;
82646;SDS011;72325;41.910;22.404;2024-02-28T04:12:30;16.05;;;10.00;;
82646;SDS011;72325;41.910;22.404;2024-02-28T04:14:56;14.32;;;10.00;;
82646;SDS011;72325;41.910;22.404;2024-02-28T04:17:22;12.85;;;9.63;;
82646;SDS011;72325;41.910;22.404;2024-02-28T04:19:48;14.70;;;10.32;;
82646;SDS011;72325;41.910;22.404;2024-02-28T04:22:14;13.60;;;10.13;;
82646;SDS011;72325;41.910;22.404;2024-02-28T04:24:40;15.23;;;9.75;;
82646;SDS011;72325;41.910;22.404;2024-02-28T04:27:06;14.35;;;9.30;;
82646;SDS011;72325;41.910;22.404;2024-02-28T04:29:35;15.90;;;10.18;;
82646;SDS011;72325;41.910;22.404;2024-02-28T04:32:01;19.15;;;10.52;;
82646;SDS011;72325;41.910;22.404;2024-02-28T04:34:27;14.68;;;10.93;;
82646;SDS011;72325;41.910;22.404;2024-02-28T04:36:53;18.90;;;11.25;;
82646;SDS011;72325;41.910;22.404;2024-02-28T04:39:19;15.60;;;10.40;;
82646;SDS011;72325;41.910;22.404;2024-02-28T04:41:45;13.75;;;9.85;;
82646;SDS011;72325;41.910;22.404;2024-02-28T04:44:11;14.32;;;10.27;;
82646;SDS011;72325;41.910;22.404;2024-02-28T04:46:38;14.75;;;10.50;;
82646;SDS011;72325;41.910;22.404;2024-02-28T04:49:04;19.00;;;11.15;;
82646;SDS011;72325;41.910;22.404;2024-02-28T04:51:30;14.45;;;10.27;;
82646;SDS011;72325;41.910;22.404;2024-02-28T04:56:59;14.13;;;10.23;;
82646;SDS011;72325;41.910;22.404;2024-02-28T04:59:26;16.38;;;10.88;;
82646;SDS011;72325;41.910;22.404;2024-02-28T05:01:52;19.45;;;12.15;;
82646;SDS011;72325;41.910;22.404;2024-02-28T05:04:18;16.35;;;11.15;;
82646;SDS011;72325;41.910;22.404;2024-02-28T05:06:44;16.33;;;12.00;;
82646;SDS011;72325;41.910;22.404;2024-02-28T05:12:14;16.73;;;12.60;;
82646;SDS011;72325;41.910;22.404;2024-02-28T05:14:40;21.08;;;12.05;;
82646;SDS011;72325;41.910;22.404;2024-02-28T05:17:09;17.20;;;11.90;;
82646;SDS011;72325;41.910;22.404;2024-02-28T05:19:35;17.20;;;11.63;;
82646;SDS011;72325;41.910;22.404;2024-02-28T05:22:01;18.25;;;11.55;;
82646;SDS011;72325;41.910;22.404;2024-02-28T05:24:28;16.58;;;10.75;;
82646;SDS011;72325;41.910;22.404;2024-02-28T05:26:54;18.52;;;12.32;;
82646;SDS011;72325;41.910;22.404;2024-02-28T05:29:23;20.67;;;12.43;;
82646;SDS011;72325;41.910;22.404;2024-02-28T05:31:50;16.73;;;11.70;;
82646;SDS011;72325;41.910;22.404;2024-02-28T05:34:20;17.00;;;11.90;;
82646;SDS011;72325;41.910;22.404;2024-02-28T05:36:47;17.27;;;11.23;;
82646;SDS011;72325;41.910;22.404;2024-02-28T05:42:18;22.52;;;14.00;;
82646;SDS011;72325;41.910;22.404;2024-02-28T05:44:49;25.75;;;16.05;;
82646;SDS011;72325;41.910;22.404;2024-02-28T05:49:44;23.92;;;14.18;;
82646;SDS011;72325;41.910;22.404;2024-02-28T05:52:10;20.73;;;12.73;;
82646;SDS011;72325;41.910;22.404;2024-02-28T05:54:36;24.35;;;14.57;;
82646;SDS011;72325;41.910;22.404;2024-02-28T05:57:02;20.52;;;14.77;;
82646;SDS011;72325;41.910;22.404;2024-02-28T05:59:28;22.77;;;16.27;;
82646;SDS011;72325;41.910;22.404;2024-02-28T06:01:55;26.67;;;17.67;;
82646;SDS011;72325;41.910;22.404;2024-02-28T06:04:21;27.73;;;16.90;;
82646;SDS011;72325;41.910;22.404;2024-02-28T06:06:47;24.25;;;16.48;;
82646;SDS011;72325;41.910;22.404;2024-02-28T06:12:17;17.20;;;11.65;;
82646;SDS011;72325;41.910;22.404;2024-02-28T06:14:43;25.92;;;17.10;;
82646;SDS011;72325;41.910;22.404;2024-02-28T06:17:10;27.98;;;18.40;;
82646;SDS011;72325;41.910;22.404;2024-02-28T06:19:36;23.95;;;15.43;;
82646;SDS011;72325;41.910;22.404;2024-02-28T06:22:02;23.00;;;17.25;;
82646;SDS011;72325;41.910;22.404;2024-02-28T06:27:31;23.40;;;16.40;;
82646;SDS011;72325;41.910;22.404;2024-02-28T06:29:58;18.60;;;12.13;;
82646;SDS011;72325;41.910;22.404;2024-02-28T06:32:24;17.85;;;12.73;;
82646;SDS011;72325;41.910;22.404;2024-02-28T06:34:50;21.80;;;12.18;;
82646;SDS011;72325;41.910;22.404;2024-02-28T06:37:18;20.13;;;15.15;;
82646;SDS011;72325;41.910;22.404;2024-02-28T06:39:44;25.15;;;15.02;;
82646;SDS011;72325;41.910;22.404;2024-02-28T06:42:10;20.48;;;13.52;;
82646;SDS011;72325;41.910;22.404;2024-02-28T06:44:36;16.02;;;10.48;;
82646;SDS011;72325;41.910;22.404;2024-02-28T06:47:02;18.27;;;10.43;;
82646;SDS011;72325;41.910;22.404;2024-02-28T06:49:28;16.40;;;11.75;;
82646;SDS011;72325;41.910;22.404;2024-02-28T06:51:54;16.13;;;10.70;;
82646;SDS011;72325;41.910;22.404;2024-02-28T06:57:28;16.77;;;10.13;;
82646;SDS011;72325;41.910;22.404;2024-02-28T06:59:54;18.40;;;11.82;;
82646;SDS011;72325;41.910;22.404;2024-02-28T07:02:20;17.17;;;12.35;;
82646;SDS011;72325;41.910;22.404;2024-02-28T07:04:46;18.23;;;10.05;;
82646;SDS011;72325;41.910;22.404;2024-02-28T07:07:12;22.77;;;13.43;;
82646;SDS011;72325;41.910;22.404;2024-02-28T07:12:41;24.60;;;15.40;;
82646;SDS011;72325;41.910;22.404;2024-02-28T07:15:07;18.00;;;13.15;;
82646;SDS011;72325;41.910;22.404;2024-02-28T07:17:34;16.45;;;11.60;;
82646;SDS011;72325;41.910;22.404;2024-02-28T07:20:00;13.85;;;10.73;;
82646;SDS011;72325;41.910;22.404;2024-02-28T07:22:26;18.67;;;11.07;;
82646;SDS011;72325;41.910;22.404;2024-02-28T07:27:57;23.75;;;15.52;;
82646;SDS011;72325;41.910;22.404;2024-02-28T07:30:24;16.00;;;12.00;;
82646;SDS011;72325;41.910;22.404;2024-02-28T07:32:50;19.63;;;13.13;;
82646;SDS011;72325;41.910;22.404;2024-02-28T07:35:16;20.13;;;12.80;;
82646;SDS011;72325;41.910;22.404;2024-02-28T07:37:44;12.57;;;9.32;;
82646;SDS011;72325;41.910;22.404;2024-02-28T07:40:14;12.80;;;8.68;;
82646;SDS011;72325;41.910;22.404;2024-02-28T07:42:40;12.05;;;8.70;;
82646;SDS011;72325;41.910;22.404;2024-02-28T07:45:06;13.98;;;10.20;;
82646;SDS011;72325;41.910;22.404;2024-02-28T07:47:33;16.27;;;10.85;;
82646;SDS011;72325;41.910;22.404;2024-02-28T07:50:00;15.55;;;10.40;;
82646;SDS011;72325;41.910;22.404;2024-02-28T07:52:26;13.13;;;9.75;;
82646;SDS011;72325;41.910;22.404;2024-02-28T07:57:55;14.85;;;9.98;;
82646;SDS011;72325;41.910;22.404;2024-02-28T08:00:21;12.52;;;9.18;;
82646;SDS011;72325;41.910;22.404;2024-02-28T08:02:47;20.27;;;11.80;;
82646;SDS011;72325;41.910;22.404;2024-02-28T08:05:13;21.65;;;13.48;;
82646;SDS011;72325;41.910;22.404;2024-02-28T08:07:40;17.05;;;11.07;;
82646;SDS011;72325;41.910;22.404;2024-02-28T08:13:10;13.75;;;9.18;;
82646;SDS011;72325;41.910;22.404;2024-02-28T08:15:36;12.85;;;9.02;;
82646;SDS011;72325;41.910;22.404;2024-02-28T08:18:02;13.52;;;9.60;;
82646;SDS011;72325;41.910;22.404;2024-02-28T08:20:28;14.20;;;9.63;;
82646;SDS011;72325;41.910;22.404;2024-02-28T08:22:54;17.70;;;11.20;;
82646;SDS011;72325;41.910;22.404;2024-02-28T08:28:25;16.77;;;9.10;;
82646;SDS011;72325;41.910;22.404;2024-02-28T08:30:51;14.23;;;8.57;;
82646;SDS011;72325;41.910;22.404;2024-02-28T08:33:17;9.93;;;7.05;;
82646;SDS011;72325;41.910;22.404;2024-02-28T08:35:44;19.05;;;13.45;;
82646;SDS011;72325;41.910;22.404;2024-02-28T08:38:10;12.18;;;9.45;;
82646;SDS011;72325;41.910;22.404;2024-02-28T08:43:39;13.70;;;9.27;;
82646;SDS011;72325;41.910;22.404;2024-02-28T08:46:05;11.65;;;8.50;;
82646;SDS011;72325;41.910;22.404;2024-02-28T08:48:32;18.08;;;10.30;;
82646;SDS011;72325;41.910;22.404;2024-02-28T08:50:58;14.60;;;9.75;;
82646;SDS011;72325;41.910;22.404;2024-02-28T08:53:24;18.88;;;11.32;;
82646;SDS011;72325;41.910;22.404;2024-02-28T08:58:54;12.80;;;10.23;;
82646;SDS011;72325;41.910;22.404;2024-02-28T09:01:20;12.85;;;9.75;;
82646;SDS011;72325;41.910;22.404;2024-02-28T09:03:46;14.75;;;9.70;;
82646;SDS011;72325;41.910;22.404;2024-02-28T09:06:12;21.30;;;12.38;;
82646;SDS011;72325;41.910;22.404;2024-02-28T09:08:38;15.60;;;10.65;;
82646;SDS011;72325;41.910;22.404;2024-02-28T09:14:08;19.48;;;11.80;;
82646;SDS011;72325;41.910;22.404;2024-02-28T09:16:34;21.52;;;14.98;;
82646;SDS011;72325;41.910;22.404;2024-02-28T09:19:00;19.42;;;13.80;;
82646;SDS011;72325;41.910;22.404;2024-02-28T09:21:26;16.70;;;11.85;;
82646;SDS011;72325;41.910;22.404;2024-02-28T09:23:52;18.77;;;10.65;;
82646;SDS011;72325;41.910;22.404;2024-02-28T09:29:22;16.38;;;11.48;;
82646;SDS011;72325;41.910;22.404;2024-02-28T09:31:48;17.67;;;12.32;;
82646;SDS011;72325;41.910;22.404;2024-02-28T09:34:14;13.90;;;10.02;;
82646;SDS011;72325;41.910;22.404;2024-02-28T09:36:44;16.38;;;10.20;;
82646;SDS011;72325;41.910;22.404;2024-02-28T09:39:13;14.18;;;8.65;;
82646;SDS011;72325;41.910;22.404;2024-02-28T09:41:42;14.00;;;7.65;;
82646;SDS011;72325;41.910;22.404;2024-02-28T09:44:08;13.07;;;8.23;;
82646;SDS011;72325;41.910;22.404;2024-02-28T09:46:34;17.60;;;9.93;;
82646;SDS011;72325;41.910;22.404;2024-02-28T09:49:04;15.90;;;10.43;;
82646;SDS011;72325;41.910;22.404;2024-02-28T09:51:33;16.83;;;9.43;;
82646;SDS011;72325;41.910;22.404;2024-02-28T09:54:01;16.58;;;9.20;;
82646;SDS011;72325;41.910;22.404;2024-02-28T09:59:32;13.07;;;8.27;;
82646;SDS011;72325;41.910;22.404;2024-02-28T10:02:01;20.75;;;10.55;;
82646;SDS011;72325;41.910;22.404;2024-02-28T10:04:28;17.75;;;10.48;;
82646;SDS011;72325;41.910;22.404;2024-02-28T10:06:55;18.58;;;10.93;;
82646;SDS011;72325;41.910;22.404;2024-02-28T10:09:21;12.57;;;8.43;;
82646;SDS011;72325;41.910;22.404;2024-02-28T10:11:47;28.73;;;9.50;;
82646;SDS011;72325;41.910;22.404;2024-02-28T10:14:17;15.82;;;7.35;;
82646;SDS011;72325;41.910;22.404;2024-02-28T10:16:44;13.25;;;8.63;;
82646;SDS011;72325;41.910;22.404;2024-02-28T10:19:10;15.45;;;8.30;;
82646;SDS011;72325;41.910;22.404;2024-02-28T10:21:36;13.10;;;8.07;;
82646;SDS011;72325;41.910;22.404;2024-02-28T10:24:03;12.80;;;9.02;;
82646;SDS011;72325;41.910;22.404;2024-02-28T10:29:32;17.65;;;7.70;;
82646;SDS011;72325;41.910;22.404;2024-02-28T10:31:58;10.68;;;7.05;;
82646;SDS011;72325;41.910;22.404;2024-02-28T10:34:25;11.43;;;7.20;;
82646;SDS011;72325;41.910;22.404;2024-02-28T10:36:54;17.40;;;9.65;;
82646;SDS011;72325;41.910;22.404;2024-02-28T10:39:21;16.42;;;8.70;;
82646;SDS011;72325;41.910;22.404;2024-02-28T10:44:51;11.98;;;7.57;;
82646;SDS011;72325;41.910;22.404;2024-02-28T10:47:17;12.85;;;8.25;;
82646;SDS011;72325;41.910;22.404;2024-02-28T10:49:44;6.80;;;4.28;;
82646;SDS011;72325;41.910;22.404;2024-02-28T10:52:10;9.02;;;5.32;;
82646;SDS011;72325;41.910;22.404;2024-02-28T10:54:39;8.52;;;5.40;;
82646;SDS011;72325;41.910;22.404;2024-02-28T10:57:07;7.95;;;5.00;;
82646;SDS011;72325;41.910;22.404;2024-02-28T10:59:33;10.02;;;7.03;;
82646;SDS011;72325;41.910;22.404;2024-02-28T11:02:00;19.15;;;12.98;;
82646;SDS011;72325;41.910;22.404;2024-02-28T11:04:28;15.95;;;10.15;;
82646;SDS011;72325;41.910;22.404;2024-02-28T11:06:55;18.35;;;10.18;;
82646;SDS011;72325;41.910;22.404;2024-02-28T11:09:21;11.60;;;7.95;;
82646;SDS011;72325;41.910;22.404;2024-02-28T11:15:00;8.90;;;6.75;;
82646;SDS011;72325;41.910;22.404;2024-02-28T11:17:28;9.05;;;4.47;;
82646;SDS011;72325;41.910;22.404;2024-02-28T11:19:54;12.65;;;7.00;;
82646;SDS011;72325;41.910;22.404;2024-02-28T11:22:22;11.95;;;6.20;;
82646;SDS011;72325;41.910;22.404;2024-02-28T11:24:53;11.73;;;7.05;;
82646;SDS011;72325;41.910;22.404;2024-02-28T11:27:20;12.50;;;7.60;;
82646;SDS011;72325;41.910;22.404;2024-02-28T11:29:47;11.93;;;6.95;;
82646;SDS011;72325;41.910;22.404;2024-02-28T11:32:14;13.70;;;6.85;;
82646;SDS011;72325;41.910;22.404;2024-02-28T11:34:42;12.02;;;7.18;;
82646;SDS011;72325;41.910;22.404;2024-02-28T11:37:10;14.90;;;8.02;;
82646;SDS011;72325;41.910;22.404;2024-02-28T11:39:36;15.98;;;8.25;;
82646;SDS011;72325;41.910;22.404;2024-02-28T11:45:09;12.27;;;5.10;;
82646;SDS011;72325;41.910;22.404;2024-02-28T11:47:35;9.63;;;6.65;;
82646;SDS011;72325;41.910;22.404;2024-02-28T11:50:05;9.15;;;5.80;;
82646;SDS011;72325;41.910;22.404;2024-02-28T11:52:31;10.48;;;4.80;;
82646;SDS011;72325;41.910;22.404;2024-02-28T11:54:58;10.98;;;5.15;;
82646;SDS011;72325;41.910;22.404;2024-02-28T11:57:25;9.98;;;4.80;;
82646;SDS011;72325;41.910;22.404;2024-02-28T11:59:51;7.78;;;4.65;;
82646;SDS011;72325;41.910;22.404;2024-02-28T12:02:18;10.43;;;5.50;;
82646;SDS011;72325;41.910;22.404;2024-02-28T12:04:44;10.07;;;5.30;;
82646;SDS011;72325;41.910;22.404;2024-02-28T12:09:38;10.40;;;5.85;;
82646;SDS011;72325;41.910;22.404;2024-02-28T12:15:09;13.88;;;8.40;;
82646;SDS011;72325;41.910;22.404;2024-02-28T12:17:35;14.43;;;8.52;;
82646;SDS011;72325;41.910;22.404;2024-02-28T12:20:02;12.77;;;6.28;;
82646;SDS011;72325;41.910;22.404;2024-02-28T12:22:28;11.57;;;6.13;;
82646;SDS011;72325;41.910;22.404;2024-02-28T12:24:54;10.63;;;5.93;;
82646;SDS011;72325;41.910;22.404;2024-02-28T12:30:23;10.80;;;4.60;;
82646;SDS011;72325;41.910;22.404;2024-02-28T12:32:49;10.88;;;6.50;;
82646;SDS011;72325;41.910;22.404;2024-02-28T12:35:16;9.30;;;5.35;;
82646;SDS011;72325;41.910;22.404;2024-02-28T12:37:42;10.38;;;5.95;;
82646;SDS011;72325;41.910;22.404;2024-02-28T12:40:08;13.20;;;7.00;;
82646;SDS011;72325;41.910;22.404;2024-02-28T12:42:34;8.65;;;5.85;;
82646;SDS011;72325;41.910;22.404;2024-02-28T12:45:01;9.65;;;4.60;;
82646;SDS011;72325;41.910;22.404;2024-02-28T12:47:27;16.77;;;9.32;;
82646;SDS011;72325;41.910;22.404;2024-02-28T12:49:56;12.52;;;5.40;;
82646;SDS011;72325;41.910;22.404;2024-02-28T12:52:22;9.82;;;5.55;;
82646;SDS011;72325;41.910;22.404;2024-02-28T12:54:49;12.38;;;8.02;;
82646;SDS011;72325;41.910;22.404;2024-02-28T13:00:19;9.20;;;6.07;;
82646;SDS011;72325;41.910;22.404;2024-02-28T13:02:46;10.10;;;5.47;;
82646;SDS011;72325;41.910;22.404;2024-02-28T13:05:12;10.77;;;6.10;;
82646;SDS011;72325;41.910;22.404;2024-02-28T13:07:39;7.25;;;4.53;;
82646;SDS011;72325;41.910;22.404;2024-02-28T13:10:05;14.50;;;5.20;;
82646;SDS011;72325;41.910;22.404;2024-02-28T13:15:35;7.45;;;5.07;;
82646;SDS011;72325;41.910;22.404;2024-02-28T13:18:02;10.35;;;5.50;;
82646;SDS011;72325;41.910;22.404;2024-02-28T13:20:32;8.65;;;4.40;;
82646;SDS011;72325;41.910;22.404;2024-02-28T13:22:58;8.07;;;5.05;;
82646;SDS011;72325;41.910;22.404;2024-02-28T13:25:24;10.10;;;6.15;;
82646;SDS011;72325;41.910;22.404;2024-02-28T13:27:51;10.02;;;6.18;;
82646;SDS011;72325;41.910;22.404;2024-02-28T13:30:17;10.10;;;5.85;;
82646;SDS011;72325;41.910;22.404;2024-02-28T13:32:44;10.13;;;5.40;;
82646;SDS011;72325;41.910;22.404;2024-02-28T13:35:10;8.65;;;4.75;;
82646;SDS011;72325;41.910;22.404;2024-02-28T13:37:36;12.57;;;7.55;;
82646;SDS011;72325;41.910;22.404;2024-02-28T13:40:05;13.95;;;7.25;;
82646;SDS011;72325;41.910;22.404;2024-02-28T13:45:35;12.82;;;5.07;;
82646;SDS011;72325;41.910;22.404;2024-02-28T13:48:01;11.48;;;4.47;;
82646;SDS011;72325;41.910;22.404;2024-02-28T13:50:28;10.07;;;4.93;;
82646;SDS011;72325;41.910;22.404;2024-02-28T13:52:59;6.65;;;5.10;;
82646;SDS011;72325;41.910;22.404;2024-02-28T13:55:25;11.55;;;6.38;;
82646;SDS011;72325;41.910;22.404;2024-02-28T14:00:55;15.18;;;7.07;;
82646;SDS011;72325;41.910;22.404;2024-02-28T14:03:21;13.43;;;8.00;;
82646;SDS011;72325;41.910;22.404;2024-02-28T14:08:16;8.95;;;4.25;;
82646;SDS011;72325;41.910;22.404;2024-02-28T14:10:42;13.05;;;7.10;;
82646;SDS011;72325;41.910;22.404;2024-02-28T14:13:08;13.10;;;7.70;;
82646;SDS011;72325;41.910;22.404;2024-02-28T14:15:37;12.38;;;7.22;;
82646;SDS011;72325;41.910;22.404;2024-02-28T14:18:03;11.10;;;5.45;;
82646;SDS011;72325;41.910;22.404;2024-02-28T14:20:29;8.27;;;5.38;;
82646;SDS011;72325;41.910;22.404;2024-02-28T14:22:55;7.93;;;5.60;;
82646;SDS011;72325;41.910;22.404;2024-02-28T14:25:23;9.90;;;4.90;;
82646;SDS011;72325;41.910;22.404;2024-02-28T14:30:53;8.63;;;5.57;;
82646;SDS011;72325;41.910;22.404;2024-02-28T14:33:20;10.43;;;5.70;;
82646;SDS011;72325;41.910;22.404;2024-02-28T14:35:46;9.20;;;5.70;;
82646;SDS011;72325;41.910;22.404;2024-02-28T14:38:12;10.30;;;4.88;;
82646;SDS011;72325;41.910;22.404;2024-02-28T14:40:38;8.18;;;5.38;;
82646;SDS011;72325;41.910;22.404;2024-02-28T14:43:05;9.68;;;4.70;;
82646;SDS011;72325;41.910;22.404;2024-02-28T14:45:33;9.18;;;4.15;;
82646;SDS011;72325;41.910;22.404;2024-02-28T14:47:59;7.43;;;4.22;;
82646;SDS011;72325;41.910;22.404;2024-02-28T14:50:26;6.35;;;5.10;;
82646;SDS011;72325;41.910;22.404;2024-02-28T14:52:52;12.70;;;8.30;;
82646;SDS011;72325;41.910;22.404;2024-02-28T14:55:18;9.38;;;7.53;;
82646;SDS011;72325;41.910;22.404;2024-02-28T15:00:48;8.57;;;5.78;;
82646;SDS011;72325;41.910;22.404;2024-02-28T15:03:14;12.50;;;6.93;;
82646;SDS011;72325;41.910;22.404;2024-02-28T15:05:40;11.68;;;8.40;;
82646;SDS011;72325;41.910;22.404;2024-02-28T15:08:08;13.80;;;8.63;;
82646;SDS011;72325;41.910;22.404;2024-02-28T15:10:34;10.40;;;7.03;;
82646;SDS011;72325;41.910;22.404;2024-02-28T15:16:04;12.02;;;6.75;;
82646;SDS011;72325;41.910;22.404;2024-02-28T15:18:30;12.45;;;6.38;;
82646;SDS011;72325;41.910;22.404;2024-02-28T15:20:56;14.18;;;7.95;;
82646;SDS011;72325;41.910;22.404;2024-02-28T15:23:23;15.60;;;8.65;;
82646;SDS011;72325;41.910;22.404;2024-02-28T15:25:49;13.40;;;7.55;;
82646;SDS011;72325;41.910;22.404;2024-02-28T15:32:17;21.23;;;11.55;;
82646;SDS011;72325;41.910;22.404;2024-02-28T15:34:43;18.85;;;10.93;;
82646;SDS011;72325;41.910;22.404;2024-02-28T15:37:10;16.15;;;11.32;;
82646;SDS011;72325;41.910;22.404;2024-02-28T15:39:36;20.80;;;12.85;;
82646;SDS011;72325;41.910;22.404;2024-02-28T15:42:02;25.38;;;15.38;;
82646;SDS011;72325;41.910;22.404;2024-02-28T15:44:29;21.85;;;13.80;;
82646;SDS011;72325;41.910;22.404;2024-02-28T15:46:55;19.30;;;13.00;;
82646;SDS011;72325;41.910;22.404;2024-02-28T15:49:22;23.02;;;13.10;;
82646;SDS011;72325;41.910;22.404;2024-02-28T15:51:48;18.83;;;11.15;;
82646;SDS011;72325;41.910;22.404;2024-02-28T15:54:14;15.95;;;9.95;;
82646;SDS011;72325;41.910;22.404;2024-02-28T15:56:40;17.40;;;12.25;;
82646;SDS011;72325;41.910;22.404;2024-02-28T15:59:08;18.85;;;10.73;;
82646;SDS011;72325;41.910;22.404;2024-02-28T16:01:37;16.35;;;11.18;;
82646;SDS011;72325;41.910;22.404;2024-02-28T16:04:03;17.77;;;10.45;;
82646;SDS011;72325;41.910;22.404;2024-02-28T16:06:29;17.10;;;10.95;;
82646;SDS011;72325;41.910;22.404;2024-02-28T16:08:55;18.38;;;11.43;;
82646;SDS011;72325;41.910;22.404;2024-02-28T16:11:21;19.20;;;11.02;;
82646;SDS011;72325;41.910;22.404;2024-02-28T16:13:47;14.75;;;10.60;;
82646;SDS011;72325;41.910;22.404;2024-02-28T16:16:14;13.05;;;9.68;;
82646;SDS011;72325;41.910;22.404;2024-02-28T16:18:41;30.60;;;20.35;;
82646;SDS011;72325;41.910;22.404;2024-02-28T16:21:07;23.67;;;12.90;;
82646;SDS011;72325;41.910;22.404;2024-02-28T16:23:34;17.85;;;12.45;;